createdAt,value
2017-08-21T00:04:07.965Z,101209
2017-08-21T00:09:11.163Z,101193
2017-08-21T00:14:14.371Z,101203
2017-08-21T00:19:17.563Z,101207
2017-08-21T00:24:20.749Z,101207
2017-08-21T00:29:23.957Z,101198
2017-08-21T00:34:27.155Z,101197
2017-08-21T00:39:30.341Z,101197
2017-08-21T00:44:33.524Z,101182
2017-08-21T00:49:36.701Z,101204
2017-08-21T00:54:39.873Z,101218
2017-08-21T00:59:43.122Z,101212
2017-08-21T01:04:46.340Z,101204
2017-08-21T01:09:49.553Z,101189
2017-08-21T01:14:52.753Z,101186
2017-08-21T01:19:55.957Z,101198
2017-08-21T01:24:59.170Z,101212
2017-08-21T01:30:02.358Z,101209
2017-08-21T01:35:05.562Z,101195
2017-08-21T01:40:08.762Z,101184
2017-08-21T01:45:11.934Z,101191
2017-08-21T01:50:15.158Z,101190
2017-08-21T01:55:18.353Z,101188
2017-08-21T02:00:21.545Z,101180
2017-08-21T02:05:24.721Z,101175
2017-08-21T02:10:27.907Z,101173
2017-08-21T02:15:31.101Z,101168
2017-08-21T02:20:34.292Z,101174
2017-08-21T02:25:37.489Z,101164
2017-08-21T02:30:40.727Z,101189
2017-08-21T02:35:43.921Z,101166
2017-08-21T02:40:47.121Z,101178
2017-08-21T02:45:50.339Z,101166
2017-08-21T02:50:53.533Z,101174
2017-08-21T02:55:56.745Z,101179
2017-08-21T03:00:59.939Z,101170
2017-08-21T03:06:03.160Z,101160
2017-08-21T03:11:06.749Z,101142
2017-08-21T03:16:09.958Z,101169
2017-08-21T03:21:13.149Z,101163
2017-08-21T03:26:16.353Z,101169
2017-08-21T03:31:19.546Z,101175
2017-08-21T03:36:22.780Z,101181
2017-08-21T03:41:25.982Z,101162
2017-08-21T03:46:29.166Z,101168
2017-08-21T03:51:32.370Z,101162
2017-08-21T03:56:35.788Z,101168
2017-08-21T04:01:38.982Z,101175
2017-08-21T04:06:42.199Z,101166
2017-08-21T04:11:45.384Z,101181
2017-08-21T04:16:48.573Z,101181
2017-08-21T04:21:51.779Z,101171
2017-08-21T04:26:54.984Z,101174
2017-08-21T04:31:58.229Z,101177
2017-08-21T04:37:01.451Z,101190
2017-08-21T04:42:04.637Z,101188
2017-08-21T04:47:07.834Z,101183
2017-08-21T04:52:11.034Z,101186
2017-08-21T04:57:14.206Z,101182
2017-08-21T05:02:17.414Z,101187
2017-08-21T05:07:20.614Z,101183
2017-08-21T05:12:23.816Z,101188
2017-08-21T05:17:26.985Z,101182
2017-08-21T05:22:30.193Z,101191
2017-08-21T05:27:33.397Z,101194
2017-08-21T05:32:36.592Z,101209
2017-08-21T05:37:39.812Z,101216
2017-08-21T05:42:43.465Z,101218
2017-08-21T05:47:46.665Z,101233
2017-08-21T05:52:49.868Z,101225
2017-08-21T05:57:53.187Z,101229
2017-08-21T06:02:56.376Z,101241
2017-08-21T06:07:59.591Z,101231
2017-08-21T06:13:02.785Z,101232
2017-08-21T06:18:05.969Z,101232
2017-08-21T06:23:09.174Z,101235
2017-08-21T06:28:12.384Z,101244
2017-08-21T06:33:15.640Z,101245
2017-08-21T06:38:18.905Z,101235
2017-08-21T06:43:22.121Z,101246
2017-08-21T06:48:25.333Z,101244
2017-08-21T06:53:28.594Z,101245
2017-08-21T06:58:31.729Z,101244
2017-08-21T07:03:34.934Z,101243
2017-08-21T07:08:38.149Z,101243
2017-08-21T07:13:41.570Z,101245
2017-08-21T07:18:44.745Z,101242
2017-08-21T07:23:47.967Z,101248
2017-08-21T07:28:51.258Z,101230
2017-08-21T07:33:54.434Z,101228
2017-08-21T07:38:57.626Z,101236
2017-08-21T07:44:00.837Z,101237
2017-08-21T07:49:04.029Z,101230
2017-08-21T07:54:07.245Z,101237
2017-08-21T07:59:10.446Z,101237
2017-08-21T08:04:13.663Z,101236
2017-08-21T08:09:16.897Z,101231
2017-08-21T08:14:20.100Z,101230
2017-08-21T08:19:23.330Z,101234
2017-08-21T08:24:26.584Z,101232
2017-08-21T08:29:29.801Z,101231
2017-08-21T08:34:33.000Z,101233
2017-08-21T08:39:36.209Z,101232
2017-08-21T08:44:39.367Z,101241
2017-08-21T08:49:42.549Z,101238
2017-08-21T08:54:45.787Z,101228
2017-08-21T08:59:48.949Z,101234
2017-08-21T09:04:52.180Z,101239
2017-08-21T09:09:55.381Z,101232
2017-08-21T09:14:58.577Z,101233
2017-08-21T09:20:01.730Z,101235
2017-08-21T09:25:04.923Z,101241
2017-08-21T09:30:08.110Z,101246
2017-08-21T09:35:11.301Z,101247
2017-08-21T09:40:14.496Z,101255
2017-08-21T09:45:17.693Z,101249
2017-08-21T09:50:20.930Z,101247
2017-08-21T09:55:24.207Z,101241
2017-08-21T10:00:27.423Z,101240
2017-08-21T10:05:30.604Z,101227
2017-08-21T10:10:33.818Z,101237
2017-08-21T10:15:37.008Z,101220
2017-08-21T10:20:40.209Z,101219
2017-08-21T10:25:43.437Z,101228
2017-08-21T10:30:46.649Z,101217
2017-08-21T10:35:49.840Z,101215
2017-08-21T10:40:53.094Z,101203
2017-08-21T10:45:56.299Z,101222
2017-08-21T10:50:59.551Z,101212
2017-08-21T10:56:02.770Z,101204
2017-08-21T11:01:06.552Z,101199
2017-08-21T11:06:10.030Z,101190
2017-08-21T11:11:13.235Z,101186
2017-08-21T11:16:18.726Z,101181
2017-08-21T11:21:21.944Z,101179
2017-08-21T11:26:25.166Z,101175
2017-08-21T11:31:28.418Z,101178
2017-08-21T11:36:31.777Z,101178
2017-08-21T11:41:35.047Z,101162
2017-08-21T11:46:38.367Z,101156
2017-08-21T11:51:41.525Z,101155
2017-08-21T11:56:44.763Z,101147
2017-08-21T12:01:47.941Z,101123
2017-08-21T12:06:51.193Z,101128
2017-08-21T12:11:54.425Z,101131
2017-08-21T12:16:57.676Z,101122
2017-08-21T12:22:00.842Z,101124
2017-08-21T12:27:04.046Z,101122
2017-08-21T12:32:07.251Z,101121
2017-08-21T12:37:10.456Z,101105
2017-08-21T12:42:13.681Z,101100
2017-08-21T12:47:16.896Z,101101
2017-08-21T12:52:20.105Z,101106
2017-08-21T12:57:23.299Z,101099
2017-08-21T13:02:26.558Z,101094
2017-08-21T13:07:29.721Z,101084
2017-08-21T13:12:32.930Z,101092
2017-08-21T13:17:36.526Z,101099
2017-08-21T13:22:39.750Z,101084
2017-08-21T13:27:42.942Z,101091
2017-08-21T13:32:46.221Z,101094
2017-08-21T13:37:49.393Z,101084
2017-08-21T13:42:52.703Z,101088
2017-08-21T13:47:55.875Z,101074
2017-08-21T13:52:59.079Z,101077
2017-08-21T13:58:02.307Z,101072
2017-08-21T14:03:05.549Z,101059
2017-08-21T14:08:08.732Z,101058
2017-08-21T14:13:11.938Z,101052
2017-08-21T14:18:15.161Z,101049
2017-08-21T14:23:18.541Z,101048
2017-08-21T14:28:21.750Z,101043
2017-08-21T14:33:24.954Z,101042
2017-08-21T14:38:28.171Z,101032
2017-08-21T14:43:31.357Z,101042
2017-08-21T14:48:34.546Z,101039
2017-08-21T14:53:37.749Z,101038
2017-08-21T14:58:40.949Z,101039
2017-08-21T15:03:44.095Z,101032
2017-08-21T15:08:47.342Z,101036
2017-08-21T15:13:50.619Z,101036
2017-08-21T15:18:53.817Z,101033
2017-08-21T15:23:57.022Z,101038
2017-08-21T15:29:00.216Z,101032
2017-08-21T15:34:03.415Z,101030
2017-08-21T15:39:06.648Z,101029
2017-08-21T15:44:09.858Z,101028
2017-08-21T15:49:13.101Z,101030
2017-08-21T15:54:16.273Z,101027
2017-08-21T15:59:19.534Z,101028
2017-08-21T16:04:22.747Z,101042
2017-08-21T16:09:25.910Z,101037
2017-08-21T16:14:29.153Z,101037
2017-08-21T16:19:32.370Z,101043
2017-08-21T16:24:35.569Z,101036
2017-08-21T16:29:38.764Z,101031
2017-08-21T16:34:41.986Z,101027
2017-08-21T16:39:45.292Z,101029
2017-08-21T16:44:48.513Z,101025
2017-08-21T16:49:51.700Z,101030
2017-08-21T16:54:54.904Z,101016
2017-08-21T16:59:58.115Z,101022
2017-08-21T17:05:01.315Z,101020
2017-08-21T17:10:04.494Z,101028
2017-08-21T17:15:07.679Z,101029
2017-08-21T17:20:10.889Z,101025
2017-08-21T17:25:14.079Z,101024
2017-08-21T17:30:17.303Z,101030
2017-08-21T17:35:20.537Z,101031
2017-08-21T17:40:23.731Z,101019
2017-08-21T17:45:26.923Z,101025
2017-08-21T17:51:01.045Z,101032
2017-08-21T17:56:04.258Z,101034
2017-08-21T18:01:07.468Z,101042
2017-08-21T18:06:10.790Z,101049
2017-08-21T18:11:13.984Z,101036
2017-08-21T18:16:17.239Z,101045
2017-08-21T18:21:20.450Z,101043
2017-08-21T18:26:23.727Z,101046
2017-08-21T18:31:27.035Z,101056
2017-08-21T18:36:30.228Z,101063
2017-08-21T18:41:33.435Z,101059
2017-08-21T18:46:36.657Z,101069
2017-08-21T18:51:39.848Z,101063
2017-08-21T18:56:43.067Z,101070
2017-08-21T19:01:46.270Z,101074
2017-08-21T19:06:49.526Z,101081
2017-08-21T19:11:52.711Z,101083
2017-08-21T19:16:55.972Z,101082
2017-08-21T19:21:59.168Z,101082
2017-08-21T19:27:02.362Z,101062
2017-08-21T19:32:05.652Z,101070
2017-08-21T19:37:08.795Z,101070
2017-08-21T19:42:12.039Z,101072
2017-08-21T19:47:15.248Z,101074
2017-08-21T19:52:18.450Z,101080
2017-08-21T19:57:21.693Z,101074
2017-08-21T20:02:24.887Z,101080
2017-08-21T20:07:28.073Z,101078
2017-08-21T20:12:31.412Z,101075
2017-08-21T20:17:34.600Z,101076
2017-08-21T20:22:37.797Z,101079
2017-08-21T20:27:40.980Z,101087
2017-08-21T20:32:44.183Z,101093
2017-08-21T20:37:47.387Z,101083
2017-08-21T20:42:50.628Z,101074
2017-08-21T20:47:53.857Z,101084
2017-08-21T20:52:57.089Z,101080
2017-08-21T20:58:00.382Z,101077
2017-08-21T21:03:03.589Z,101087
2017-08-21T21:08:06.844Z,101091
2017-08-21T21:13:10.053Z,101086
2017-08-21T21:18:13.316Z,101083
2017-08-21T21:23:16.538Z,101081
2017-08-21T21:28:19.737Z,101083
2017-08-21T21:33:22.924Z,101078
2017-08-21T21:38:26.178Z,101083
2017-08-21T21:43:29.383Z,101072
2017-08-21T21:48:32.623Z,101059
2017-08-21T21:53:35.809Z,101069
2017-08-21T21:58:38.996Z,101078
2017-08-21T22:03:42.199Z,101082
2017-08-21T22:08:45.381Z,101078
2017-08-21T22:13:48.579Z,101081
2017-08-21T22:18:51.749Z,101071
2017-08-21T22:23:54.969Z,101072
2017-08-21T22:28:58.153Z,101072
2017-08-21T22:34:01.342Z,101066
2017-08-21T22:39:04.542Z,101065
2017-08-21T22:44:07.736Z,101062
2017-08-21T22:49:10.930Z,101057
2017-08-21T22:54:14.124Z,101051
2017-08-21T22:59:17.328Z,101048
2017-08-21T23:04:20.533Z,101052
2017-08-21T23:09:23.767Z,101044
2017-08-21T23:14:26.949Z,101036
2017-08-21T23:19:30.149Z,101031
2017-08-21T23:24:33.345Z,101026
2017-08-21T23:29:36.558Z,101022
2017-08-21T23:34:39.763Z,101019
2017-08-21T23:39:42.957Z,101019
2017-08-21T23:44:46.146Z,101013
2017-08-21T23:49:49.337Z,101019
2017-08-21T23:54:52.563Z,101016
2017-08-21T23:59:55.780Z,101019
